createdAt,value
2022-10-30T00:00:33.193Z,25.70
2022-10-30T00:03:01.347Z,27.43
2022-10-30T00:05:29.424Z,40.50
2022-10-30T00:07:57.352Z,56.07
2022-10-30T00:10:25.854Z,43.30
2022-10-30T00:12:53.264Z,90.33
2022-10-30T00:15:22.091Z,52.30
2022-10-30T00:17:49.566Z,57.13
2022-10-30T00:20:17.075Z,46.90
2022-10-30T00:22:44.455Z,33.90
2022-10-30T00:25:11.866Z,33.73
2022-10-30T00:27:39.284Z,33.50
2022-10-30T00:30:07.856Z,29.00
2022-10-30T00:32:36.540Z,33.87
2022-10-30T00:35:04.630Z,35.83
2022-10-30T00:37:31.999Z,37.90
2022-10-30T00:39:59.383Z,58.93
2022-10-30T00:42:30.135Z,100.03
2022-10-30T00:44:57.682Z,58.87
2022-10-30T00:47:28.702Z,71.93
2022-10-30T00:50:01.956Z,30.00
2022-10-30T00:52:32.639Z,28.93
2022-10-30T00:55:04.048Z,30.90
2022-10-30T00:57:31.503Z,38.23
2022-10-30T00:59:58.880Z,30.20
2022-10-30T01:02:27.207Z,37.13
2022-10-30T01:04:55.895Z,40.93
2022-10-30T01:07:24.899Z,49.30
2022-10-30T01:09:52.320Z,46.03
2022-10-30T01:12:19.716Z,68.17
2022-10-30T01:14:53.516Z,34.40
2022-10-30T01:17:58.449Z,26.97
2022-10-30T01:20:51.330Z,27.20
2022-10-30T01:23:34.985Z,27.57
2022-10-30T01:26:12.376Z,31.33
2022-10-30T01:29:04.006Z,26.33
2022-10-30T01:31:42.053Z,36.10
2022-10-30T01:34:18.595Z,32.27
2022-10-30T01:36:50.583Z,104.47
2022-10-30T01:39:23.481Z,137.97
2022-10-30T01:41:51.162Z,180.77
2022-10-30T01:44:21.818Z,249.87
2022-10-30T01:47:01.823Z,173.37
2022-10-30T01:49:47.116Z,88.27
2022-10-30T01:52:19.947Z,135.03
2022-10-30T01:54:54.739Z,28.67
2022-10-30T01:57:34.825Z,28.30
2022-10-30T02:00:05.527Z,40.37
2022-10-30T02:02:33.777Z,34.80
2022-10-30T02:05:01.939Z,36.87
2022-10-30T02:07:29.442Z,38.37
2022-10-30T02:09:58.243Z,31.00
2022-10-30T02:12:26.481Z,59.43
2022-10-30T02:14:57.695Z,39.33
2022-10-30T02:17:26.445Z,35.93
2022-10-30T02:19:53.839Z,31.37
2022-10-30T02:22:22.873Z,31.60
2022-10-30T02:24:50.301Z,38.90
2022-10-30T02:27:17.757Z,36.60
2022-10-30T02:29:45.144Z,30.70
2022-10-30T02:32:12.559Z,30.67
2022-10-30T02:34:39.930Z,33.00
2022-10-30T02:37:07.319Z,29.43
2022-10-30T02:39:36.027Z,35.93
2022-10-30T02:42:03.443Z,30.47
2022-10-30T02:44:30.802Z,32.57
2022-10-30T02:46:58.223Z,34.30
2022-10-30T02:49:25.603Z,29.03
2022-10-30T02:51:53.054Z,30.10
2022-10-30T02:54:20.454Z,30.60
2022-10-30T02:56:49.212Z,31.80
2022-10-30T02:59:16.576Z,30.40
2022-10-30T03:01:44.160Z,35.80
2022-10-30T03:04:11.621Z,31.37
2022-10-30T03:06:39.039Z,28.73
2022-10-30T03:09:06.551Z,38.07
2022-10-30T03:11:35.468Z,30.23
2022-10-30T03:14:04.403Z,33.50
2022-10-30T03:16:33.503Z,31.83
2022-10-30T03:19:01.030Z,31.73
2022-10-30T03:21:28.916Z,28.60
2022-10-30T03:23:56.952Z,27.30
2022-10-30T03:26:24.674Z,33.40
2022-10-30T03:28:52.085Z,29.10
2022-10-30T03:31:21.033Z,31.00
2022-10-30T03:33:48.511Z,30.20
2022-10-30T03:36:16.363Z,27.33
2022-10-30T03:38:44.115Z,33.13
2022-10-30T03:41:11.486Z,25.33
2022-10-30T03:43:38.873Z,29.70
2022-10-30T03:46:06.617Z,26.13
2022-10-30T03:48:36.108Z,28.20
2022-10-30T03:51:03.514Z,26.43
2022-10-30T03:53:31.163Z,26.13
2022-10-30T03:56:00.150Z,21.40
2022-10-30T03:58:27.814Z,27.93
2022-10-30T04:00:55.288Z,29.03
2022-10-30T04:03:22.711Z,29.20
2022-10-30T04:05:53.782Z,26.97
2022-10-30T04:08:21.178Z,26.17
2022-10-30T04:10:48.910Z,27.83
2022-10-30T04:13:18.706Z,27.80
2022-10-30T04:15:46.084Z,26.40
2022-10-30T04:18:16.243Z,28.63
2022-10-30T04:20:44.182Z,26.13
2022-10-30T04:23:16.826Z,30.20
2022-10-30T04:25:44.590Z,23.70
2022-10-30T04:28:12.578Z,21.33
2022-10-30T04:30:40.556Z,25.93
2022-10-30T04:33:11.008Z,28.73
2022-10-30T04:35:38.707Z,23.33
2022-10-30T04:38:07.542Z,25.63
2022-10-30T04:40:38.313Z,24.00
2022-10-30T04:43:06.716Z,26.50
2022-10-30T04:45:34.546Z,28.53
2022-10-30T04:48:03.636Z,26.10
2022-10-30T04:50:31.762Z,21.00
2022-10-30T04:53:00.397Z,26.27
2022-10-30T04:55:28.308Z,25.83
2022-10-30T04:57:58.655Z,24.83
2022-10-30T05:00:27.767Z,27.97
2022-10-30T05:02:55.173Z,25.30
2022-10-30T05:05:22.570Z,24.70
2022-10-30T05:07:49.952Z,27.57
2022-10-30T05:10:18.354Z,22.70
2022-10-30T05:12:46.627Z,26.30
2022-10-30T05:15:15.741Z,26.90
2022-10-30T05:17:43.171Z,22.47
2022-10-30T05:20:14.793Z,21.63
2022-10-30T05:22:45.266Z,26.20
2022-10-30T05:25:12.682Z,23.73
2022-10-30T05:27:40.059Z,24.33
2022-10-30T05:30:08.662Z,23.23
2022-10-30T05:32:37.392Z,22.40
2022-10-30T05:35:05.419Z,22.27
2022-10-30T05:37:33.031Z,30.10
2022-10-30T05:40:00.385Z,19.90
2022-10-30T05:42:27.786Z,21.83
2022-10-30T05:45:00.791Z,24.57
2022-10-30T05:47:28.750Z,18.10
2022-10-30T05:49:57.425Z,24.77
2022-10-30T05:52:24.811Z,21.40
2022-10-30T05:54:52.202Z,22.77
2022-10-30T05:57:19.635Z,20.63
2022-10-30T05:59:47.019Z,21.13
2022-10-30T06:02:14.522Z,17.90
2022-10-30T06:04:41.927Z,23.37
2022-10-30T06:07:11.253Z,21.37
2022-10-30T06:09:38.646Z,20.80
2022-10-30T06:12:06.327Z,21.03
2022-10-30T06:14:33.714Z,23.53
2022-10-30T06:17:01.090Z,18.80
2022-10-30T06:19:28.466Z,26.90
2022-10-30T06:21:55.887Z,24.53
2022-10-30T06:24:24.581Z,26.07
2022-10-30T06:26:51.965Z,25.30
2022-10-30T06:29:19.387Z,18.60
2022-10-30T06:31:46.833Z,20.47
2022-10-30T06:34:14.223Z,19.53
2022-10-30T06:36:41.683Z,19.90
2022-10-30T06:39:09.120Z,22.67
2022-10-30T06:41:37.939Z,25.63
2022-10-30T06:44:05.558Z,23.07
2022-10-30T06:46:33.927Z,17.60
2022-10-30T06:49:01.495Z,18.43
2022-10-30T06:51:29.182Z,19.20
2022-10-30T06:53:56.574Z,22.97
2022-10-30T06:56:23.934Z,21.07
2022-10-30T06:58:52.838Z,23.30
2022-10-30T07:01:20.320Z,22.93
2022-10-30T07:03:47.724Z,17.37
2022-10-30T07:06:15.177Z,21.47
2022-10-30T07:08:42.581Z,18.73
2022-10-30T07:11:10.022Z,18.03
2022-10-30T07:13:37.414Z,16.87
2022-10-30T07:16:06.640Z,21.93
2022-10-30T07:18:34.023Z,22.43
2022-10-30T07:21:01.393Z,20.60
2022-10-30T07:23:28.769Z,16.53
2022-10-30T07:26:00.874Z,18.40
2022-10-30T07:28:31.538Z,18.50
2022-10-30T07:30:59.030Z,23.30
2022-10-30T07:33:27.770Z,19.47
2022-10-30T07:35:55.172Z,20.37
2022-10-30T07:38:22.609Z,22.17
2022-10-30T07:40:53.322Z,19.77
2022-10-30T07:43:20.788Z,18.57
2022-10-30T07:45:48.178Z,19.67
2022-10-30T07:48:15.559Z,22.23
2022-10-30T07:50:44.228Z,17.73
2022-10-30T07:53:11.687Z,17.10
2022-10-30T07:55:39.065Z,15.33
2022-10-30T07:58:06.437Z,21.53
2022-10-30T08:00:33.971Z,20.50
2022-10-30T08:03:01.862Z,18.97
2022-10-30T08:05:30.406Z,18.50
2022-10-30T08:07:59.583Z,19.50
2022-10-30T08:10:27.301Z,18.67
2022-10-30T08:12:54.795Z,21.07
2022-10-30T08:15:22.274Z,15.60
2022-10-30T08:17:51.882Z,18.70
2022-10-30T08:20:20.866Z,20.70
2022-10-30T08:22:49.330Z,18.17
2022-10-30T08:25:19.858Z,18.73
2022-10-30T08:27:52.320Z,16.57
2022-10-30T08:30:20.070Z,17.47
2022-10-30T08:32:47.511Z,17.93
2022-10-30T08:35:19.818Z,17.63
2022-10-30T08:37:47.766Z,17.37
2022-10-30T08:40:15.410Z,18.47
2022-10-30T08:42:44.180Z,15.27
2022-10-30T08:45:11.874Z,23.17
2022-10-30T08:47:39.288Z,16.57
2022-10-30T08:50:07.003Z,18.87
2022-10-30T08:52:34.437Z,15.13
2022-10-30T08:55:01.813Z,18.30
2022-10-30T08:57:29.573Z,19.63
2022-10-30T08:59:58.252Z,22.37
2022-10-30T09:02:25.743Z,16.50
2022-10-30T09:04:53.194Z,16.03
2022-10-30T09:07:20.654Z,16.20
2022-10-30T09:09:48.163Z,15.57
2022-10-30T09:12:16.207Z,19.60
2022-10-30T09:14:43.619Z,15.83
2022-10-30T09:17:12.576Z,12.77
2022-10-30T09:19:40.302Z,13.63
2022-10-30T09:22:07.797Z,13.10
2022-10-30T09:24:35.224Z,15.57
2022-10-30T09:27:02.652Z,19.40
2022-10-30T09:29:31.169Z,16.50
2022-10-30T09:31:58.572Z,21.87
2022-10-30T09:37:00.196Z,14.93
2022-10-30T09:39:29.935Z,16.13
2022-10-30T09:42:16.322Z,13.87
2022-10-30T09:45:23.222Z,16.50
2022-10-30T09:48:01.661Z,17.33
2022-10-30T09:50:35.852Z,14.70
2022-10-30T09:53:16.374Z,15.47
2022-10-30T09:55:51.102Z,18.67
2022-10-30T09:58:28.966Z,14.30
2022-10-30T10:01:09.763Z,15.77
2022-10-30T10:03:50.021Z,13.50
2022-10-30T10:06:21.185Z,15.13
2022-10-30T10:08:53.086Z,14.17
2022-10-30T10:11:25.314Z,11.77
2022-10-30T10:13:58.730Z,12.57
2022-10-30T10:16:30.089Z,15.23
2022-10-30T10:19:01.412Z,12.03
2022-10-30T10:21:33.834Z,13.93
2022-10-30T10:24:04.171Z,12.80
2022-10-30T10:26:42.043Z,11.77
2022-10-30T10:29:34.800Z,14.03
2022-10-30T10:32:25.290Z,14.57
2022-10-30T10:35:05.709Z,13.70
2022-10-30T10:37:41.914Z,10.50
2022-10-30T10:40:27.733Z,16.73
2022-10-30T10:43:08.128Z,14.13
2022-10-30T10:45:47.333Z,17.17
2022-10-30T10:48:38.070Z,14.73
2022-10-30T10:51:11.513Z,13.30
2022-10-30T10:53:45.794Z,13.50
2022-10-30T10:56:14.713Z,17.53
2022-10-30T10:58:50.287Z,13.20
2022-10-30T11:01:23.709Z,14.32
2022-10-30T11:03:57.490Z,18.10
2022-10-30T11:06:28.154Z,16.93
2022-10-30T11:09:12.644Z,17.38
2022-10-30T11:11:40.088Z,17.95
2022-10-30T11:14:14.879Z,13.70
2022-10-30T11:16:55.191Z,12.68
2022-10-30T11:19:23.325Z,15.83
2022-10-30T11:21:54.357Z,14.13
2022-10-30T11:24:31.612Z,11.55
2022-10-30T11:27:00.650Z,13.30
2022-10-30T11:29:30.178Z,21.00
2022-10-30T11:32:03.147Z,17.77
2022-10-30T11:34:34.221Z,12.73
2022-10-30T11:37:02.514Z,14.82
2022-10-30T11:39:33.983Z,13.32
2022-10-30T11:42:05.324Z,11.38
2022-10-30T11:44:38.728Z,13.70
2022-10-30T11:47:07.546Z,13.23
2022-10-30T11:49:42.026Z,12.68
2022-10-30T11:52:11.034Z,12.25
2022-10-30T11:54:44.795Z,13.02
2022-10-30T11:57:22.121Z,13.48
2022-10-30T11:59:51.708Z,15.55
2022-10-30T12:02:30.433Z,13.85
2022-10-30T12:05:02.931Z,12.55
2022-10-30T12:07:33.375Z,13.55
2022-10-30T12:10:04.018Z,17.77
2022-10-30T12:12:37.256Z,16.38
2022-10-30T12:15:20.873Z,21.13
2022-10-30T12:17:52.565Z,12.65
2022-10-30T12:20:20.783Z,11.82
2022-10-30T12:22:48.265Z,14.88
2022-10-30T12:25:25.263Z,13.32
2022-10-30T12:28:00.264Z,10.20
2022-10-30T12:30:31.916Z,10.70
2022-10-30T12:33:03.196Z,13.52
2022-10-30T12:35:41.687Z,14.63
2022-10-30T12:38:16.532Z,10.30
2022-10-30T12:40:51.192Z,14.05
2022-10-30T12:43:21.320Z,14.38
2022-10-30T12:45:52.182Z,17.23
2022-10-30T12:48:26.833Z,15.77
2022-10-30T12:51:10.438Z,14.00
2022-10-30T12:53:43.659Z,17.25
2022-10-30T12:56:17.287Z,16.77
2022-10-30T12:58:51.330Z,13.13
2022-10-30T13:01:26.939Z,12.10
2022-10-30T13:03:58.312Z,15.65
2022-10-30T13:06:31.298Z,12.93
2022-10-30T13:09:09.244Z,12.50
2022-10-30T13:11:45.155Z,10.48
2022-10-30T13:14:17.532Z,13.32
2022-10-30T13:16:50.027Z,11.55
2022-10-30T13:19:17.488Z,14.40
2022-10-30T13:21:52.540Z,11.55
2022-10-30T13:24:24.725Z,13.13
2022-10-30T13:26:59.092Z,15.88
2022-10-30T13:29:30.298Z,18.35
2022-10-30T13:32:15.578Z,13.07
2022-10-30T13:34:53.298Z,9.77
2022-10-30T13:37:28.022Z,13.10
2022-10-30T13:40:06.883Z,12.85
2022-10-30T13:42:52.347Z,14.35
2022-10-30T13:45:36.451Z,14.68
2022-10-30T13:48:12.427Z,12.07
2022-10-30T13:50:55.624Z,20.52
2022-10-30T13:53:27.245Z,13.63
2022-10-30T13:55:56.765Z,14.90
2022-10-30T13:58:32.983Z,11.85
2022-10-30T14:01:06.821Z,13.20
2022-10-30T14:03:54.149Z,12.02
2022-10-30T14:06:33.591Z,20.13
2022-10-30T14:09:13.141Z,14.38
2022-10-30T14:11:40.575Z,11.52
2022-10-30T14:14:30.009Z,12.65
2022-10-30T14:17:13.624Z,13.02
2022-10-30T14:20:18.508Z,16.08
2022-10-30T14:23:09.734Z,13.48
2022-10-30T14:25:37.272Z,13.88
2022-10-30T14:28:05.618Z,17.23
2022-10-30T14:30:36.694Z,11.88
2022-10-30T14:33:04.277Z,12.98
2022-10-30T14:35:40.077Z,14.55
2022-10-30T14:38:25.157Z,13.85
2022-10-30T14:41:23.302Z,12.07
2022-10-30T14:44:01.842Z,13.68
2022-10-30T14:46:38.300Z,12.82
2022-10-30T14:49:27.799Z,14.25
2022-10-30T14:52:08.930Z,63.35
2022-10-30T14:54:42.368Z,34.17
2022-10-30T14:57:21.983Z,14.15
2022-10-30T14:59:49.405Z,14.65
2022-10-30T15:02:29.717Z,12.68
2022-10-30T15:05:15.974Z,11.43
2022-10-30T15:07:51.303Z,14.52
2022-10-30T15:10:26.768Z,15.45
2022-10-30T15:13:06.444Z,13.25
2022-10-30T15:15:34.843Z,15.85
2022-10-30T15:18:08.700Z,15.52
2022-10-30T15:20:38.910Z,15.68
2022-10-30T15:23:10.844Z,21.85
2022-10-30T15:25:51.190Z,17.83
2022-10-30T15:28:35.615Z,15.02
2022-10-30T15:31:05.612Z,22.43
2022-10-30T15:33:37.645Z,99.85
2022-10-30T15:36:05.991Z,24.03
2022-10-30T15:38:33.489Z,23.13
2022-10-30T15:41:03.952Z,26.53
2022-10-30T15:43:34.334Z,22.67
2022-10-30T15:46:01.852Z,26.27
2022-10-30T15:48:32.138Z,22.03
2022-10-30T15:51:04.262Z,19.13
2022-10-30T15:53:39.235Z,26.43
2022-10-30T15:56:13.689Z,24.30
2022-10-30T15:58:50.295Z,22.23
2022-10-30T16:01:26.539Z,19.53
2022-10-30T16:03:55.337Z,16.83
2022-10-30T16:06:27.032Z,21.10
2022-10-30T16:08:54.579Z,25.47
2022-10-30T16:11:22.913Z,30.33
2022-10-30T16:13:50.928Z,26.20
2022-10-30T16:16:23.145Z,21.33
2022-10-30T16:18:51.331Z,28.53
2022-10-30T16:21:22.022Z,26.87
2022-10-30T16:23:53.044Z,27.17
2022-10-30T16:26:27.471Z,31.37
2022-10-30T16:28:54.864Z,50.93
2022-10-30T16:31:24.312Z,93.70
2022-10-30T16:33:52.019Z,50.83
2022-10-30T16:36:20.603Z,43.27
2022-10-30T16:38:49.617Z,262.77
2022-10-30T16:41:25.718Z,82.00
2022-10-30T16:44:17.215Z,41.50
2022-10-30T16:46:49.311Z,52.97
2022-10-30T16:49:19.100Z,39.67
2022-10-30T16:51:47.511Z,39.73
2022-10-30T16:54:24.503Z,40.03
2022-10-30T16:56:55.668Z,38.27
2022-10-30T16:59:31.167Z,103.57
2022-10-30T17:02:05.718Z,41.30
2022-10-30T17:04:35.384Z,27.33
2022-10-30T17:07:08.902Z,29.23
2022-10-30T17:09:38.786Z,29.73
2022-10-30T17:12:15.595Z,38.17
2022-10-30T17:14:49.727Z,50.90
2022-10-30T17:17:28.967Z,40.00
2022-10-30T17:19:58.950Z,32.83
2022-10-30T17:22:27.910Z,51.70
2022-10-30T17:24:55.713Z,37.47
2022-10-30T17:27:31.365Z,56.47
2022-10-30T17:29:59.387Z,40.57
2022-10-30T17:32:28.601Z,35.43
2022-10-30T17:35:01.853Z,34.67
2022-10-30T17:37:29.624Z,44.37
2022-10-30T17:39:57.029Z,36.93
2022-10-30T17:42:24.639Z,33.27
2022-10-30T17:44:53.367Z,41.43
2022-10-30T17:47:21.760Z,44.30
2022-10-30T17:49:50.028Z,49.73
2022-10-30T17:52:20.547Z,36.93
2022-10-30T17:54:47.962Z,25.20
2022-10-30T17:57:16.237Z,50.43
2022-10-30T17:59:44.150Z,37.93
2022-10-30T18:02:15.715Z,82.03
2022-10-30T18:04:43.975Z,33.97
2022-10-30T18:07:11.550Z,29.83
2022-10-30T18:09:39.419Z,44.23
2022-10-30T18:12:08.855Z,40.17
2022-10-30T18:14:36.246Z,38.10
2022-10-30T18:17:03.773Z,45.60
2022-10-30T18:19:32.954Z,54.73
2022-10-30T18:22:00.322Z,55.00
2022-10-30T18:24:27.694Z,32.77
2022-10-30T18:26:55.409Z,42.17
2022-10-30T18:29:22.811Z,43.40
2022-10-30T18:31:50.220Z,34.60
2022-10-30T18:34:21.051Z,32.47
2022-10-30T18:36:50.140Z,34.03
2022-10-30T18:39:17.770Z,38.33
2022-10-30T18:41:47.046Z,33.97
2022-10-30T18:44:16.057Z,35.73
2022-10-30T18:46:44.010Z,27.50
2022-10-30T18:49:11.598Z,34.23
2022-10-30T18:51:39.324Z,34.23
2022-10-30T18:54:14.602Z,38.07
2022-10-30T18:56:42.298Z,42.77
2022-10-30T18:59:09.754Z,61.07
2022-10-30T19:01:38.364Z,40.83
2022-10-30T19:04:09.800Z,36.67
2022-10-30T19:06:38.543Z,36.50
2022-10-30T19:09:06.066Z,33.47
2022-10-30T19:11:37.334Z,43.73
2022-10-30T19:14:10.753Z,69.17
2022-10-30T19:16:38.140Z,40.77
2022-10-30T19:19:05.550Z,53.10
2022-10-30T19:21:34.590Z,153.57
2022-10-30T19:24:03.877Z,58.70
2022-10-30T19:26:31.269Z,45.80
2022-10-30T19:29:00.038Z,67.57
2022-10-30T19:31:27.471Z,57.00
2022-10-30T19:33:57.495Z,39.23
2022-10-30T19:36:30.393Z,48.67
2022-10-30T19:38:58.633Z,38.33
2022-10-30T19:41:27.451Z,38.13
2022-10-30T19:43:55.018Z,33.37
2022-10-30T19:46:23.744Z,44.40
2022-10-30T19:48:59.564Z,38.77
2022-10-30T19:51:27.966Z,38.23
2022-10-30T19:53:55.500Z,68.00
2022-10-30T19:56:23.198Z,60.73
2022-10-30T19:58:51.066Z,51.60
2022-10-30T20:01:18.723Z,62.70
2022-10-30T20:03:47.603Z,55.93
2022-10-30T20:06:16.501Z,47.13
2022-10-30T20:08:44.565Z,62.60
2022-10-30T20:11:11.969Z,53.83
2022-10-30T20:13:39.423Z,46.33
2022-10-30T20:16:07.515Z,33.50
2022-10-30T20:18:36.592Z,33.13
2022-10-30T20:21:08.305Z,36.60
2022-10-30T20:23:36.191Z,43.27
2022-10-30T20:26:06.300Z,25.60
2022-10-30T20:28:36.948Z,27.13
2022-10-30T20:31:05.301Z,75.13
2022-10-30T20:33:32.754Z,33.07
2022-10-30T20:36:00.235Z,33.77
2022-10-30T20:38:31.449Z,34.23
2022-10-30T20:41:00.243Z,32.77
2022-10-30T20:43:30.355Z,33.83
2022-10-30T20:45:58.191Z,36.73
2022-10-30T20:48:25.799Z,40.20
2022-10-30T20:50:53.718Z,32.67
2022-10-30T20:53:21.204Z,28.47
2022-10-30T20:55:49.987Z,30.40
2022-10-30T20:58:17.383Z,33.63
2022-10-30T21:00:48.463Z,31.73
2022-10-30T21:03:16.929Z,32.07
2022-10-30T21:05:46.279Z,33.40
2022-10-30T21:08:14.768Z,37.70
2022-10-30T21:10:42.862Z,33.20
2022-10-30T21:13:11.877Z,31.90
2022-10-30T21:15:40.005Z,37.67
2022-10-30T21:18:07.567Z,40.00
2022-10-30T21:20:35.239Z,43.07
2022-10-30T21:23:02.660Z,37.33
2022-10-30T21:25:32.112Z,41.90
2022-10-30T21:27:59.642Z,43.50
2022-10-30T21:30:29.037Z,37.63
2022-10-30T21:32:56.438Z,31.07
2022-10-30T21:35:23.902Z,31.77
2022-10-30T21:37:51.355Z,40.27
2022-10-30T21:40:18.809Z,40.73
2022-10-30T21:42:48.653Z,37.37
2022-10-30T21:45:16.155Z,43.43
2022-10-30T21:47:44.936Z,87.83
2022-10-30T21:50:13.038Z,46.93
2022-10-30T21:52:40.836Z,39.13
2022-10-30T21:55:08.838Z,50.83
2022-10-30T21:57:36.340Z,57.17
2022-10-30T22:00:06.144Z,41.63
2022-10-30T22:02:34.865Z,38.43
2022-10-30T22:05:03.661Z,34.80
2022-10-30T22:07:31.282Z,32.37
2022-10-30T22:09:58.698Z,41.93
2022-10-30T22:12:26.129Z,37.17
2022-10-30T22:14:53.533Z,41.03
2022-10-30T22:17:20.996Z,37.27
2022-10-30T22:19:48.443Z,48.27
2022-10-30T22:22:17.135Z,78.73
2022-10-30T22:24:44.544Z,53.57
2022-10-30T22:27:11.975Z,56.33
2022-10-30T22:29:39.387Z,88.17
2022-10-30T22:32:06.794Z,67.70
2022-10-30T22:34:34.221Z,32.80
2022-10-30T22:37:01.593Z,39.37
2022-10-30T22:39:30.301Z,41.13
2022-10-30T22:41:57.714Z,38.40
2022-10-30T22:44:25.097Z,43.40
2022-10-30T22:46:52.648Z,42.00
2022-10-30T22:49:20.066Z,36.23
2022-10-30T22:51:47.479Z,37.37
2022-10-30T22:54:14.883Z,38.23
2022-10-30T22:56:43.640Z,33.77
2022-10-30T22:59:13.641Z,37.10
2022-10-30T23:01:41.723Z,57.23
2022-10-30T23:04:11.253Z,32.13
2022-10-30T23:06:38.753Z,39.37
2022-10-30T23:09:08.559Z,51.40
2022-10-30T23:11:35.971Z,75.67
2022-10-30T23:14:04.767Z,91.10
2022-10-30T23:16:32.430Z,53.60
2022-10-30T23:19:02.112Z,61.83
2022-10-30T23:21:31.356Z,46.20
2022-10-30T23:23:59.773Z,37.10
2022-10-30T23:26:30.392Z,39.40
2022-10-30T23:28:59.461Z,36.20
2022-10-30T23:31:30.129Z,37.97
2022-10-30T23:33:59.417Z,37.93
2022-10-30T23:36:27.830Z,36.23
2022-10-30T23:38:56.376Z,34.43
2022-10-30T23:41:25.739Z,37.43
2022-10-30T23:43:54.412Z,39.30
2022-10-30T23:46:21.965Z,41.00
2022-10-30T23:48:51.031Z,37.87
2022-10-30T23:51:19.181Z,38.63
2022-10-30T23:53:46.705Z,36.90
2022-10-30T23:56:14.223Z,35.80
2022-10-30T23:58:43.762Z,37.03
